createdAt,value
2023-04-01T00:00:36.078Z,6.55
2023-04-01T00:03:03.060Z,6.63
2023-04-01T00:05:29.615Z,6.50
2023-04-01T00:07:56.105Z,6.20
2023-04-01T00:10:22.434Z,6.10
2023-04-01T00:12:48.803Z,5.97
2023-04-01T00:15:15.584Z,5.90
2023-04-01T00:17:42.065Z,6.07
2023-04-01T00:20:08.943Z,9.32
2023-04-01T00:22:35.728Z,9.43
2023-04-01T00:25:02.133Z,7.07
2023-04-01T00:27:28.543Z,6.40
2023-04-01T00:29:54.888Z,7.32
2023-04-01T00:32:21.274Z,5.78
2023-04-01T00:34:50.680Z,4.90
2023-04-01T00:37:16.982Z,6.10
2023-04-01T00:39:43.456Z,7.20
2023-04-01T00:42:09.867Z,9.18
2023-04-01T00:44:38.063Z,9.45
2023-04-01T00:47:04.494Z,12.52
2023-04-01T00:49:33.310Z,12.95
2023-04-01T00:52:00.323Z,10.35
2023-04-01T00:54:27.965Z,14.70
2023-04-01T00:57:01.148Z,10.50
2023-04-01T00:59:28.802Z,9.43
2023-04-01T01:01:55.392Z,7.85
2023-04-01T01:04:26.512Z,11.00
2023-04-01T01:06:55.706Z,8.82
2023-04-01T01:09:27.000Z,7.20
2023-04-01T01:12:02.517Z,7.95
2023-04-01T01:14:45.881Z,6.97
2023-04-01T01:17:21.560Z,6.80
2023-04-01T01:19:49.360Z,6.97
2023-04-01T01:24:45.483Z,8.40
2023-04-01T01:27:17.904Z,7.88
2023-04-01T01:29:50.358Z,7.60
2023-04-01T01:32:22.621Z,8.85
2023-04-01T01:35:12.440Z,8.02
2023-04-01T01:37:41.329Z,8.52
2023-04-01T01:40:09.088Z,9.13
2023-04-01T01:42:37.904Z,6.35
2023-04-01T01:45:05.347Z,6.93
2023-04-01T01:47:32.479Z,6.35
2023-04-01T01:49:59.073Z,6.45
2023-04-01T01:52:25.615Z,6.35
2023-04-01T01:54:55.803Z,5.43
2023-04-01T01:57:40.787Z,5.57
2023-04-01T02:00:13.871Z,5.40
2023-04-01T02:02:45.020Z,5.57
2023-04-01T02:05:12.856Z,5.65
2023-04-01T02:07:40.554Z,5.75
2023-04-01T02:10:07.374Z,6.03
2023-04-01T02:15:57.176Z,6.63
2023-04-01T02:18:23.656Z,6.70
2023-04-01T02:20:50.740Z,7.38
2023-04-01T02:23:17.350Z,7.15
2023-04-01T02:25:44.428Z,7.63
2023-04-01T02:28:11.638Z,8.03
2023-04-01T02:30:39.491Z,7.95
2023-04-01T02:35:33.903Z,7.25
2023-04-01T02:38:00.650Z,6.93
2023-04-01T02:40:27.104Z,8.00
2023-04-01T02:42:53.490Z,7.78
2023-04-01T02:45:19.936Z,8.90
2023-04-01T02:47:46.436Z,7.55
2023-04-01T02:50:12.953Z,7.72
2023-04-01T02:52:39.414Z,7.25
2023-04-01T02:55:06.691Z,7.63
2023-04-01T02:57:33.076Z,7.57
2023-04-01T02:59:59.498Z,7.30
2023-04-01T03:02:26.244Z,6.63
2023-04-01T03:04:52.813Z,7.10
2023-04-01T03:07:19.184Z,7.13
2023-04-01T03:09:45.772Z,6.78
2023-04-01T03:12:12.114Z,8.05
2023-04-01T03:14:38.476Z,7.93
2023-04-01T03:17:04.937Z,7.93
2023-04-01T03:19:31.361Z,8.13
2023-04-01T03:21:57.703Z,8.82
2023-04-01T03:24:24.080Z,8.63
2023-04-01T03:26:50.724Z,8.88
2023-04-01T03:29:17.189Z,8.18
2023-04-01T03:31:43.744Z,8.77
2023-04-01T03:34:10.505Z,7.78
2023-04-01T03:36:37.209Z,8.05
2023-04-01T03:39:04.665Z,7.32
2023-04-01T03:41:31.719Z,6.10
2023-04-01T03:43:58.295Z,6.65
2023-04-01T03:46:24.752Z,6.53
2023-04-01T03:48:51.146Z,6.68
2023-04-01T03:51:17.594Z,7.57
2023-04-01T03:53:43.960Z,6.03
2023-04-01T03:56:10.365Z,7.20
2023-04-01T03:58:37.361Z,7.03
2023-04-01T04:01:03.734Z,6.87
2023-04-01T04:03:31.019Z,6.38
2023-04-01T04:05:57.646Z,6.38
2023-04-01T04:08:23.966Z,5.43
2023-04-01T04:10:55.763Z,5.68
2023-04-01T04:13:22.270Z,5.30
2023-04-01T04:15:48.621Z,4.93
2023-04-01T04:18:14.954Z,4.50
2023-04-01T04:20:46.557Z,4.97
2023-04-01T04:23:12.892Z,5.07
2023-04-01T04:25:39.216Z,5.25
2023-04-01T04:28:05.568Z,4.47
2023-04-01T04:30:31.871Z,4.70
2023-04-01T04:32:58.264Z,4.68
2023-04-01T04:35:24.703Z,5.40
2023-04-01T04:37:51.045Z,5.32
2023-04-01T04:40:17.468Z,4.82
2023-04-01T04:42:43.839Z,5.05
2023-04-01T04:45:10.609Z,5.43
2023-04-01T04:47:36.999Z,5.07
2023-04-01T04:50:03.460Z,5.85
2023-04-01T04:52:29.820Z,6.43
2023-04-01T04:54:56.153Z,7.13
2023-04-01T04:57:22.546Z,7.32
2023-04-01T04:59:48.896Z,7.60
2023-04-01T05:02:15.475Z,7.40
2023-04-01T05:04:41.954Z,8.30
2023-04-01T05:07:08.277Z,8.15
2023-04-01T05:09:34.867Z,7.68
2023-04-01T05:12:01.224Z,8.63
2023-04-01T05:14:27.536Z,7.53
2023-04-01T05:16:55.278Z,6.72
2023-04-01T05:21:48.203Z,6.18
2023-04-01T05:24:14.533Z,6.18
2023-04-01T05:26:40.923Z,5.53
2023-04-01T05:29:07.296Z,5.93
2023-04-01T05:31:33.623Z,5.47
2023-04-01T05:33:59.964Z,5.90
2023-04-01T05:36:26.382Z,6.47
2023-04-01T05:38:55.700Z,6.60
2023-04-01T05:41:22.059Z,6.22
2023-04-01T05:43:48.397Z,6.57
2023-04-01T05:46:14.786Z,7.45
2023-04-01T05:48:41.272Z,7.57
2023-04-01T05:51:07.629Z,7.53
2023-04-01T05:53:34.008Z,7.28
2023-04-01T05:56:04.192Z,7.35
2023-04-01T05:58:30.775Z,7.75
2023-04-01T06:01:10.171Z,7.32
2023-04-01T06:03:40.494Z,7.53
2023-04-01T06:06:12.591Z,7.20
2023-04-01T06:08:38.976Z,7.47
2023-04-01T06:11:05.428Z,6.18
2023-04-01T06:13:48.323Z,6.45
2023-04-01T06:16:26.599Z,7.63
2023-04-01T06:19:02.165Z,7.32
2023-04-01T06:21:28.506Z,6.90
2023-04-01T06:24:13.999Z,7.25
2023-04-01T06:26:44.414Z,8.13
2023-04-01T06:29:22.968Z,6.55
2023-04-01T06:32:15.984Z,7.25
2023-04-01T06:35:01.245Z,7.32
2023-04-01T06:37:38.101Z,8.05
2023-04-01T06:40:04.486Z,8.60
2023-04-01T06:42:42.806Z,8.32
2023-04-01T06:45:15.241Z,6.82
2023-04-01T06:47:43.898Z,7.47
2023-04-01T06:50:25.892Z,6.13
2023-04-01T06:53:11.153Z,7.95
2023-04-01T06:55:56.306Z,6.65
2023-04-01T06:58:24.598Z,7.30
2023-04-01T07:01:14.266Z,6.50
2023-04-01T07:03:46.099Z,6.72
2023-04-01T07:06:21.786Z,6.80
2023-04-01T07:08:49.887Z,6.03
2023-04-01T07:11:27.476Z,7.85
2023-04-01T07:14:01.070Z,6.78
2023-04-01T07:16:51.247Z,7.55
2023-04-01T07:19:30.228Z,7.20
2023-04-01T07:22:01.309Z,7.80
2023-04-01T07:24:34.597Z,7.85
2023-04-01T07:27:01.205Z,6.50
2023-04-01T07:29:28.104Z,7.53
2023-04-01T07:32:00.403Z,6.65
2023-04-01T07:34:26.736Z,7.75
2023-04-01T07:37:13.707Z,5.78
2023-04-01T07:39:58.007Z,6.63
2023-04-01T07:42:43.356Z,5.75
2023-04-01T07:45:09.700Z,4.97
2023-04-01T07:47:55.134Z,4.82
2023-04-01T07:50:29.167Z,5.30
2023-04-01T07:53:14.252Z,5.45
2023-04-01T07:55:46.029Z,5.93
2023-04-01T07:58:31.764Z,5.60
2023-04-01T08:00:58.076Z,6.40
2023-04-01T08:03:32.501Z,5.53
2023-04-01T08:06:01.967Z,6.72
2023-04-01T08:08:42.724Z,5.40
2023-04-01T08:11:11.820Z,5.65
2023-04-01T08:13:53.808Z,5.72
2023-04-01T08:16:29.314Z,4.75
2023-04-01T08:19:04.832Z,4.80
2023-04-01T08:21:44.026Z,4.95
2023-04-01T08:24:37.161Z,4.20
2023-04-01T08:27:17.365Z,3.90
2023-04-01T08:30:02.408Z,4.50
2023-04-01T08:32:39.900Z,4.18
2023-04-01T08:35:39.024Z,4.57
2023-04-01T08:38:41.065Z,4.63
2023-04-01T08:41:07.402Z,4.78
2023-04-01T08:43:46.709Z,3.90
2023-04-01T08:46:16.194Z,4.45
2023-04-01T08:48:53.082Z,3.80
2023-04-01T08:51:19.403Z,3.40
2023-04-01T08:54:03.969Z,3.00
2023-04-01T08:56:36.364Z,2.65
2023-04-01T08:59:08.853Z,3.55
2023-04-01T09:01:38.159Z,2.45
2023-04-01T09:04:19.469Z,2.33
2023-04-01T09:06:57.962Z,2.30
2023-04-01T09:09:33.415Z,2.00
2023-04-01T09:11:59.760Z,1.63
2023-04-01T09:14:32.231Z,1.50
2023-04-01T09:17:17.275Z,1.25
2023-04-01T09:19:58.874Z,1.30
2023-04-01T09:22:39.872Z,1.30
2023-04-01T09:25:06.185Z,0.73
2023-04-01T09:27:32.526Z,1.00
2023-04-01T09:30:01.915Z,1.08
2023-04-01T09:32:52.028Z,0.55
2023-04-01T09:35:21.633Z,0.30
2023-04-01T09:38:06.563Z,0.30
2023-04-01T09:40:54.872Z,0.30
2023-04-01T09:43:24.223Z,0.20
2023-04-01T09:45:50.691Z,0.10
2023-04-01T09:48:35.482Z,0.25
2023-04-01T09:51:04.892Z,0.10
2023-04-01T09:53:51.536Z,0.20
2023-04-01T09:56:34.268Z,0.23
2023-04-01T09:59:19.308Z,0.15
2023-04-01T10:01:45.696Z,0.10
2023-04-01T10:04:30.796Z,0.15
2023-04-01T10:07:13.300Z,0.10
2023-04-01T10:09:58.265Z,0.10
2023-04-01T10:12:43.529Z,0.20
2023-04-01T10:15:22.288Z,0.30
2023-04-01T10:17:59.763Z,0.60
2023-04-01T10:20:44.769Z,0.50
2023-04-01T10:23:11.086Z,0.20
2023-04-01T10:25:37.472Z,0.10
2023-04-01T10:28:12.884Z,0.10
2023-04-01T10:30:42.253Z,0.10
2023-04-01T10:33:27.605Z,0.20
2023-04-01T10:36:09.342Z,0.10
2023-04-01T10:39:11.364Z,0.10
2023-04-01T10:41:43.306Z,0.10
2023-04-01T10:44:18.542Z,0.10
2023-04-01T10:47:04.737Z,0.20
2023-04-01T10:49:50.075Z,0.10
2023-04-01T10:52:45.826Z,0.00
2023-04-01T10:55:24.409Z,0.10
2023-04-01T10:57:51.132Z,0.10
2023-04-01T11:00:29.781Z,0.10
2023-04-01T11:03:22.192Z,0.20
2023-04-01T11:05:51.667Z,0.17
2023-04-01T11:08:18.024Z,0.17
2023-04-01T11:10:56.581Z,0.10
2023-04-01T11:13:26.286Z,0.10
2023-04-01T11:16:04.676Z,0.20
2023-04-01T11:18:31.063Z,0.00
2023-04-01T11:21:08.014Z,0.10
2023-04-01T11:23:34.349Z,0.25
2023-04-01T11:26:07.083Z,0.40
2023-04-01T11:28:43.338Z,0.45
2023-04-01T11:31:15.594Z,0.43
2023-04-01T11:33:50.832Z,0.80
2023-04-01T11:36:17.313Z,1.30
2023-04-01T11:38:58.302Z,1.35
2023-04-01T11:41:39.668Z,1.50
2023-04-01T11:44:24.850Z,1.52
2023-04-01T11:47:10.293Z,1.52
2023-04-01T11:49:50.932Z,1.67
2023-04-01T11:52:26.599Z,2.00
2023-04-01T11:55:05.738Z,1.80
2023-04-01T11:57:41.524Z,1.50
2023-04-01T12:00:26.324Z,1.70
2023-04-01T12:03:11.707Z,1.40
2023-04-01T12:05:50.097Z,1.20
2023-04-01T12:08:42.811Z,1.77
2023-04-01T12:11:09.159Z,2.10
2023-04-01T12:13:35.549Z,2.70
2023-04-01T12:16:20.066Z,2.50
2023-04-01T12:19:15.549Z,3.17
2023-04-01T12:21:53.545Z,2.60
2023-04-01T12:24:32.051Z,2.13
2023-04-01T12:26:58.484Z,1.42
2023-04-01T12:29:51.535Z,1.80
2023-04-01T12:32:23.784Z,2.17
2023-04-01T12:35:04.802Z,3.00
2023-04-01T12:37:49.798Z,4.68
2023-04-01T12:40:19.237Z,5.80
2023-04-01T12:43:01.205Z,5.00
2023-04-01T12:45:32.149Z,5.68
2023-04-01T12:48:04.797Z,8.32
2023-04-01T12:50:38.818Z,8.60
2023-04-01T12:53:23.585Z,6.75
2023-04-01T12:55:53.655Z,6.57
2023-04-01T12:58:21.564Z,6.28
2023-04-01T13:00:57.260Z,5.68
2023-04-01T13:03:26.536Z,5.78
2023-04-01T13:05:55.883Z,6.20
2023-04-01T13:08:31.567Z,6.80
2023-04-01T13:11:04.004Z,7.72
2023-04-01T13:13:41.581Z,7.80
2023-04-01T13:16:15.243Z,7.70
2023-04-01T13:18:50.896Z,7.82
2023-04-01T13:21:27.449Z,8.25
2023-04-01T13:23:53.768Z,7.97
2023-04-01T13:26:26.568Z,7.90
2023-04-01T13:29:08.563Z,8.95
2023-04-01T13:31:47.152Z,8.90
2023-04-01T13:34:28.907Z,8.45
2023-04-01T13:37:05.645Z,8.10
2023-04-01T13:39:44.506Z,6.87
2023-04-01T13:42:28.182Z,5.60
2023-04-01T13:44:57.467Z,4.72
2023-04-01T13:47:42.722Z,4.70
2023-04-01T13:50:18.665Z,4.82
2023-04-01T13:52:52.848Z,4.85
2023-04-01T13:55:29.422Z,4.70
2023-04-01T13:58:11.172Z,4.70
2023-04-01T14:00:37.759Z,5.55
2023-04-01T14:03:16.416Z,5.20
2023-04-01T14:05:55.046Z,4.75
2023-04-01T14:08:28.447Z,6.00
2023-04-01T14:11:00.953Z,4.75
2023-04-01T14:13:45.984Z,4.22
2023-04-01T14:16:18.385Z,4.68
2023-04-01T14:19:08.069Z,4.78
2023-04-01T14:21:53.253Z,4.60
2023-04-01T14:24:39.355Z,4.10
2023-04-01T14:27:11.607Z,3.60
2023-04-01T14:29:41.031Z,3.60
2023-04-01T14:32:35.892Z,3.58
2023-04-01T14:35:14.403Z,2.90
2023-04-01T14:37:43.811Z,3.25
2023-04-01T14:40:16.250Z,3.13
2023-04-01T14:42:50.217Z,3.40
2023-04-01T14:45:35.475Z,3.50
2023-04-01T14:48:05.432Z,2.90
2023-04-01T14:50:43.249Z,3.30
2023-04-01T14:53:14.281Z,3.40
2023-04-01T14:55:43.719Z,3.08
2023-04-01T14:58:18.103Z,2.70
2023-04-01T15:00:50.863Z,2.28
2023-04-01T15:03:23.827Z,2.40
2023-04-01T15:05:53.028Z,2.30
2023-04-01T15:08:25.461Z,2.42
2023-04-01T15:11:22.663Z,2.20
2023-04-01T15:14:00.940Z,2.60
2023-04-01T15:16:27.413Z,2.08
2023-04-01T15:19:05.627Z,1.83
2023-04-01T15:21:35.000Z,1.70
2023-04-01T15:24:10.684Z,1.70
2023-04-01T15:26:52.237Z,2.00
2023-04-01T15:29:27.758Z,1.77
2023-04-01T15:32:01.564Z,1.88
2023-04-01T15:34:54.327Z,2.00
2023-04-01T15:37:21.609Z,2.03
2023-04-01T15:40:08.227Z,1.92
2023-04-01T15:42:37.317Z,2.20
2023-04-01T15:45:22.429Z,2.17
2023-04-01T15:48:15.930Z,2.38
2023-04-01T15:50:42.456Z,2.55
2023-04-01T15:53:18.995Z,2.60
2023-04-01T15:56:11.889Z,2.42
2023-04-01T15:58:53.683Z,2.58
2023-04-01T16:01:28.417Z,2.42
2023-04-01T16:03:59.915Z,2.60
2023-04-01T16:06:46.372Z,2.28
2023-04-01T16:09:12.686Z,2.45
2023-04-01T16:11:42.140Z,2.17
2023-04-01T16:14:27.039Z,1.98
2023-04-01T16:17:13.642Z,2.15
2023-04-01T16:19:45.786Z,1.88
2023-04-01T16:22:21.580Z,1.42
2023-04-01T16:25:03.578Z,0.90
2023-04-01T16:27:48.386Z,1.20
2023-04-01T16:30:33.933Z,1.10
2023-04-01T16:33:06.478Z,1.50
2023-04-01T16:35:48.613Z,1.30
2023-04-01T16:38:33.533Z,1.48
2023-04-01T16:40:59.853Z,1.35
2023-04-01T16:43:29.080Z,1.40
2023-04-01T16:46:07.502Z,1.38
2023-04-01T16:48:46.398Z,1.40
2023-04-01T16:51:16.239Z,1.30
2023-04-01T16:53:44.660Z,1.15
2023-04-01T16:56:11.047Z,1.30
2023-04-01T16:58:57.770Z,1.55
2023-04-01T17:01:27.140Z,2.80
2023-04-01T17:03:58.419Z,2.90
2023-04-01T17:06:42.673Z,1.45
2023-04-01T17:09:35.484Z,1.38
2023-04-01T17:12:04.911Z,1.30
2023-04-01T17:14:36.142Z,1.40
2023-04-01T17:17:27.596Z,1.65
2023-04-01T17:19:59.171Z,1.75
2023-04-01T17:22:40.990Z,1.60
2023-04-01T17:25:18.528Z,2.80
2023-04-01T17:27:48.901Z,2.17
2023-04-01T17:30:36.668Z,2.10
2023-04-01T17:33:21.597Z,2.33
2023-04-01T17:36:06.915Z,15.27
2023-04-01T17:38:39.121Z,16.38
2023-04-01T17:41:11.525Z,12.85
2023-04-01T17:43:41.410Z,4.93
2023-04-01T17:46:26.329Z,2.83
2023-04-01T17:48:58.164Z,3.20
2023-04-01T17:51:31.089Z,2.90
2023-04-01T17:54:22.330Z,2.40
2023-04-01T17:57:07.254Z,2.75
2023-04-01T17:59:38.104Z,2.42
2023-04-01T18:02:08.350Z,3.50
2023-04-01T18:04:41.509Z,8.90
2023-04-01T18:07:07.836Z,9.55
2023-04-01T18:09:49.725Z,3.42
2023-04-01T18:12:26.822Z,2.58
2023-04-01T18:15:08.444Z,2.45
2023-04-01T18:17:53.733Z,3.30
2023-04-01T18:20:23.120Z,3.03
2023-04-01T18:23:14.201Z,3.08
2023-04-01T18:25:49.095Z,3.00
2023-04-01T18:28:18.256Z,2.40
2023-04-01T18:31:06.995Z,2.88
2023-04-01T18:33:37.311Z,3.90
2023-04-01T18:36:22.693Z,4.32
2023-04-01T18:38:55.004Z,4.55
2023-04-01T18:41:36.965Z,6.57
2023-04-01T18:44:42.026Z,3.70
2023-04-01T18:47:20.393Z,2.28
2023-04-01T18:49:54.270Z,2.00
2023-04-01T18:52:23.883Z,1.88
2023-04-01T18:55:10.231Z,2.47
2023-04-01T18:57:54.074Z,2.40
2023-04-01T19:00:20.447Z,2.15
2023-04-01T19:02:51.891Z,2.22
2023-04-01T19:05:20.417Z,2.70
2023-04-01T19:07:49.350Z,2.55
2023-04-01T19:10:18.468Z,2.30
2023-04-01T19:13:01.165Z,2.67
2023-04-01T19:15:39.738Z,2.78
2023-04-01T19:18:15.532Z,2.85
2023-04-01T19:20:44.698Z,4.20
2023-04-01T19:23:25.018Z,3.92
2023-04-01T19:26:14.346Z,3.72
2023-04-01T19:28:43.682Z,4.38
2023-04-01T19:31:28.794Z,3.63
2023-04-01T19:34:13.658Z,3.38
2023-04-01T19:36:51.782Z,2.70
2023-04-01T19:39:46.232Z,3.33
2023-04-01T19:42:31.484Z,2.78
2023-04-01T19:45:16.721Z,2.20
2023-04-01T19:47:52.988Z,2.38
2023-04-01T19:50:26.097Z,1.92
2023-04-01T19:52:54.927Z,1.80
2023-04-01T19:55:27.217Z,2.40
2023-04-01T19:58:12.209Z,1.50
2023-04-01T20:00:41.071Z,1.90
2023-04-01T20:03:33.744Z,2.20
2023-04-01T20:06:11.340Z,1.50
2023-04-01T20:08:46.401Z,1.45
2023-04-01T20:11:18.964Z,1.20
2023-04-01T20:13:47.445Z,1.20
2023-04-01T20:16:16.307Z,4.03
2023-04-01T20:18:45.862Z,4.05
2023-04-01T20:21:15.413Z,1.90
2023-04-01T20:23:43.807Z,1.55
2023-04-01T20:26:11.930Z,1.30
2023-04-01T20:28:46.119Z,1.30
2023-04-01T20:31:15.488Z,1.90
2023-04-01T20:33:42.028Z,2.03
2023-04-01T20:36:16.894Z,2.10
2023-04-01T20:38:52.410Z,1.92
2023-04-01T20:41:28.415Z,2.20
2023-04-01T20:44:03.634Z,1.38
2023-04-01T20:46:33.060Z,1.25
2023-04-01T20:49:06.023Z,1.30
2023-04-01T20:51:35.690Z,1.20
2023-04-01T20:54:14.036Z,1.27
2023-04-01T20:56:44.483Z,1.10
2023-04-01T20:59:10.938Z,1.30
2023-04-01T21:01:45.995Z,0.93
2023-04-01T21:04:30.724Z,1.10
2023-04-01T21:07:21.646Z,1.10
2023-04-01T21:09:47.944Z,1.10
2023-04-01T21:12:14.234Z,1.02
2023-04-01T21:14:43.513Z,1.15
2023-04-01T21:17:15.609Z,1.70
2023-04-01T21:19:48.675Z,1.65
2023-04-01T21:22:18.010Z,1.65
2023-04-01T21:25:03.279Z,1.60
2023-04-01T21:27:35.938Z,1.40
2023-04-01T21:30:14.287Z,1.48
2023-04-01T21:32:46.856Z,1.63
2023-04-01T21:35:18.947Z,1.35
2023-04-01T21:37:49.881Z,1.67
2023-04-01T21:40:28.518Z,1.85
2023-04-01T21:42:54.828Z,1.63
2023-04-01T21:45:24.828Z,1.45
2023-04-01T21:48:00.852Z,1.58
2023-04-01T21:50:35.447Z,1.98
2023-04-01T21:53:22.689Z,1.92
2023-04-01T21:56:01.245Z,2.88
2023-04-01T21:58:39.952Z,2.30
2023-04-01T22:01:09.405Z,2.42
2023-04-01T22:03:41.815Z,2.20
2023-04-01T22:06:21.624Z,2.03
2023-04-01T22:08:51.296Z,2.00
2023-04-01T22:11:35.813Z,2.42
2023-04-01T22:14:08.513Z,2.97
2023-04-01T22:16:42.089Z,2.80
2023-04-01T22:19:16.364Z,2.67
2023-04-01T22:21:53.131Z,2.80
2023-04-01T22:24:38.285Z,2.53
2023-04-01T22:27:07.683Z,2.42
2023-04-01T22:29:42.762Z,2.60
2023-04-01T22:32:12.412Z,2.33
2023-04-01T22:34:38.804Z,2.33
2023-04-01T22:37:11.357Z,2.58
2023-04-01T22:39:37.692Z,2.53
2023-04-01T22:42:22.880Z,2.40
2023-04-01T22:45:05.965Z,2.40
2023-04-01T22:47:32.313Z,2.40
2023-04-01T22:50:04.591Z,2.40
2023-04-01T22:52:38.731Z,2.08
2023-04-01T22:55:23.192Z,1.98
2023-04-01T22:57:52.916Z,2.08
2023-04-01T23:00:20.289Z,2.08
2023-04-01T23:02:50.853Z,1.75
2023-04-01T23:05:19.390Z,2.30
2023-04-01T23:07:50.164Z,2.05
2023-04-01T23:10:20.825Z,2.10
2023-04-01T23:12:48.594Z,2.40
2023-04-01T23:15:15.942Z,2.10
2023-04-01T23:17:52.566Z,2.17
2023-04-01T23:20:29.988Z,1.90
2023-04-01T23:23:15.328Z,1.67
2023-04-01T23:25:53.924Z,2.00
2023-04-01T23:28:23.343Z,2.10
2023-04-01T23:30:50.779Z,2.03
2023-04-01T23:33:20.427Z,2.03
2023-04-01T23:35:49.610Z,1.98
2023-04-01T23:38:16.955Z,2.05
2023-04-01T23:40:43.285Z,2.42
2023-04-01T23:43:28.235Z,2.38
2023-04-01T23:45:58.344Z,2.13
2023-04-01T23:48:28.167Z,2.30
2023-04-01T23:50:54.789Z,2.30
2023-04-01T23:53:26.043Z,2.22
2023-04-01T23:55:52.821Z,2.72
2023-04-01T23:58:19.219Z,2.22
